Time;durP1;ratioP1;P1;durP2;ratioP2;P2;SDS_P1;SDS_P2;PMS_P1;PMS_P2;Temp;Humidity;BMP_temperature;BMP_pressure;BME280_temperature;BME280_humidity;BME280_pressure;Samples;Min_cycle;Max_cycle;Signal;HPM_P1;HPM_P2
2021/06/20 00:01:03;;;;;;;12.00;11.00;;;;;;;;;;5109089;28;20420;-77
2021/06/20 00:03:29;;;;;;;10.63;9.83;;;;;;;;;;5094663;28;20413;-77
2021/06/20 00:05:58;;;;;;;10.80;9.97;;;;;;;;;;5093207;28;20487;-78
2021/06/20 00:08:24;;;;;;;11.63;10.73;;;;;;;;;;5092908;28;20747;-76
2021/06/20 00:10:50;;;;;;;10.77;9.70;;;;;;;;;;5092869;28;20413;-77
2021/06/20 00:13:17;;;;;;;10.50;9.70;;;;;;;;;;5092793;28;20500;-77
2021/06/20 00:15:43;;;;;;;11.80;10.70;;;;;;;;;;5093045;28;20421;-77
2021/06/20 00:18:10;;;;;;;10.67;9.67;;;;;;;;;;5093028;28;20430;-77
2021/06/20 00:20:40;;;;;;;10.90;9.83;;;;;;;;;;5092976;28;20494;-77
2021/06/20 00:23:06;;;;;;;11.10;10.20;;;;;;;;;;5103168;28;20428;-78
2021/06/20 00:25:32;;;;;;;10.50;9.63;;;;;;;;;;5113719;28;20769;-76
2021/06/20 00:27:58;;;;;;;10.23;9.47;;;;;;;;;;5113213;28;20404;-78
2021/06/20 00:30:26;;;;;;;10.90;10.00;;;;;;;;;;5098799;28;20795;-78
2021/06/20 00:32:52;;;;;;;10.40;9.50;;;;;;;;;;5092931;28;20461;-77
2021/06/20 00:35:18;;;;;;;10.87;10.07;;;;;;;;;;5093052;28;20417;-78
2021/06/20 00:37:44;;;;;;;11.40;10.47;;;;;;;;;;5092865;28;20401;-77
2021/06/20 00:40:11;;;;;;;10.77;10.00;;;;;;;;;;5092796;28;20759;-78
2021/06/20 00:42:37;;;;;;;11.57;10.60;;;;;;;;;;5097827;28;20425;-76
2021/06/20 00:45:04;;;;;;;10.60;9.70;;;;;;;;;;5101914;28;20413;-77
2021/06/20 00:47:30;;;;;;;11.37;10.13;;;;;;;;;;5096621;28;20421;-77
2021/06/20 00:49:56;;;;;;;10.63;9.73;;;;;;;;;;5096685;28;20762;-77
2021/06/20 00:52:22;;;;;;;11.10;10.17;;;;;;;;;;5096791;28;20867;-76
2021/06/20 00:54:48;;;;;;;10.87;9.83;;;;;;;;;;5096547;28;20755;-77
2021/06/20 00:57:18;;;;;;;10.50;9.70;;;;;;;;;;5096401;28;20470;-77
2021/06/20 00:59:44;;;;;;;11.43;10.43;;;;;;;;;;5096413;28;20409;-77
2021/06/20 01:02:14;;;;;;;11.40;10.40;;;;;;;;;;5096634;28;20483;-77
2021/06/20 01:04:41;;;;;;;11.47;10.33;;;;;;;;;;5096372;28;20429;-77
2021/06/20 01:07:07;;;;;;;9.73;9.03;;;;;;;;;;5096482;28;21001;-77
2021/06/20 01:09:33;;;;;;;11.30;10.40;;;;;;;;;;5096276;28;20421;-77
2021/06/20 01:11:59;;;;;;;11.40;10.40;;;;;;;;;;5096451;28;20863;-78
2021/06/20 01:14:25;;;;;;;11.43;10.30;;;;;;;;;;5096541;28;20803;-78
2021/06/20 01:16:52;;;;;;;11.27;10.47;;;;;;;;;;5096172;28;20766;-77
2021/06/20 01:19:19;;;;;;;10.80;10.00;;;;;;;;;;5095800;28;20442;-76
2021/06/20 01:21:45;;;;;;;10.20;9.50;;;;;;;;;;5097525;28;20488;-77
2021/06/20 01:24:11;;;;;;;11.53;10.57;;;;;;;;;;5116163;28;20455;-77
2021/06/20 01:26:38;;;;;;;12.30;11.07;;;;;;;;;;5116672;28;20408;-77
2021/06/20 01:29:06;;;;;;;10.80;9.70;;;;;;;;;;5113276;28;20453;-77
2021/06/20 01:31:33;;;;;;;11.27;10.37;;;;;;;;;;5095624;28;20433;-78
2021/06/20 01:34:00;;;;;;;11.33;10.43;;;;;;;;;;5095688;28;20939;-79
2021/06/20 01:36:26;;;;;;;10.77;9.97;;;;;;;;;;5095825;28;20406;-77
2021/06/20 01:38:52;;;;;;;10.30;9.40;;;;;;;;;;5095634;28;20404;-77
2021/06/20 01:41:18;;;;;;;11.00;10.00;;;;;;;;;;5095598;28;20955;-78
2021/06/20 01:43:44;;;;;;;11.63;10.70;;;;;;;;;;5107127;28;20906;-79
2021/06/20 01:46:10;;;;;;;12.20;11.20;;;;;;;;;;5095777;28;20428;-78
2021/06/20 01:48:36;;;;;;;11.07;10.27;;;;;;;;;;5095480;28;20414;-75
2021/06/20 01:51:05;;;;;;;11.40;10.40;;;;;;;;;;5095593;28;20976;-77
2021/06/20 01:53:31;;;;;;;10.80;9.93;;;;;;;;;;5095023;28;20449;-77
2021/06/20 01:55:57;;;;;;;12.07;10.80;;;;;;;;;;5095390;28;20466;-76
2021/06/20 01:58:23;;;;;;;12.53;11.40;;;;;;;;;;5095415;28;20770;-76
2021/06/20 02:00:50;;;;;;;11.97;10.83;;;;;;;;;;5095299;28;20406;-75
2021/06/20 02:03:17;;;;;;;11.53;10.63;;;;;;;;;;5094991;28;20440;-76
2021/06/20 02:05:44;;;;;;;11.50;10.60;;;;;;;;;;5095308;28;20429;-79
2021/06/20 02:08:11;;;;;;;11.10;9.70;;;;;;;;;;5094834;28;20452;-76
2021/06/20 02:10:38;;;;;;;10.90;10.00;;;;;;;;;;5095356;28;20542;-77
2021/06/20 02:13:04;;;;;;;11.57;10.67;;;;;;;;;;5094655;28;20555;-77
2021/06/20 02:15:30;;;;;;;11.53;10.63;;;;;;;;;;5095150;28;20412;-75
2021/06/20 02:17:57;;;;;;;12.90;11.77;;;;;;;;;;5094919;28;20409;-79
2021/06/20 02:20:23;;;;;;;11.47;10.63;;;;;;;;;;5095037;28;20790;-76
2021/06/20 02:22:51;;;;;;;11.80;10.63;;;;;;;;;;5104960;28;20505;-77
2021/06/20 02:25:17;;;;;;;12.20;11.20;;;;;;;;;;5115556;28;20412;-76
2021/06/20 02:27:44;;;;;;;12.97;11.90;;;;;;;;;;5114960;28;20452;-77
2021/06/20 02:30:13;;;;;;;12.90;11.70;;;;;;;;;;5103107;28;20440;-77
2021/06/20 02:32:39;;;;;;;12.37;11.47;;;;;;;;;;5094440;28;20461;-77
2021/06/20 02:35:06;;;;;;;12.80;11.80;;;;;;;;;;5094404;28;20401;-75
2021/06/20 02:37:32;;;;;;;12.10;11.10;;;;;;;;;;5094280;28;20416;-75
2021/06/20 02:39:58;;;;;;;12.30;11.27;;;;;;;;;;5094440;28;20405;-76
2021/06/20 02:42:24;;;;;;;11.90;11.00;;;;;;;;;;5098837;28;20424;-77
2021/06/20 02:44:51;;;;;;;12.43;11.40;;;;;;;;;;5101910;28;20736;-76
2021/06/20 02:47:17;;;;;;;12.73;11.73;;;;;;;;;;5094392;28;20545;-77
2021/06/20 02:49:44;;;;;;;13.30;12.23;;;;;;;;;;5094374;28;20448;-77
2021/06/20 02:52:11;;;;;;;13.50;12.40;;;;;;;;;;5093826;28;20598;-77
2021/06/20 02:54:49;;;;;;;13.60;12.30;;;;;;;;;;5094319;28;20409;-78
2021/06/20 02:57:15;;;;;;;14.03;12.83;;;;;;;;;;5094333;28;20405;-79
2021/06/20 02:59:40;;;;;;;13.00;11.90;;;;;;;;;;5093992;28;20409;-78
2021/06/20 03:02:06;;;;;;;12.33;11.03;;;;;;;;;;5093941;28;20425;-77
2021/06/20 03:04:32;;;;;;;13.10;12.00;;;;;;;;;;5093955;28;20498;-77
2021/06/20 03:06:58;;;;;;;12.87;11.77;;;;;;;;;;5093271;28;20564;-77
2021/06/20 03:09:24;;;;;;;12.87;11.57;;;;;;;;;;5094186;28;20841;-76
2021/06/20 03:11:50;;;;;;;12.73;11.73;;;;;;;;;;5093891;28;20548;-77
2021/06/20 03:14:17;;;;;;;12.50;11.40;;;;;;;;;;5093546;28;20413;-76
2021/06/20 03:16:44;;;;;;;13.30;12.30;;;;;;;;;;5093842;28;20415;-77
2021/06/20 03:19:10;;;;;;;12.67;11.67;;;;;;;;;;5093766;28;20746;-79
2021/06/20 03:21:36;;;;;;;13.43;12.30;;;;;;;;;;5093940;28;20498;-78
2021/06/20 03:24:03;;;;;;;12.70;11.70;;;;;;;;;;5113894;28;20416;-77
2021/06/20 03:26:29;;;;;;;14.43;13.10;;;;;;;;;;5114140;28;20404;-77
2021/06/20 03:28:55;;;;;;;13.07;12.17;;;;;;;;;;5113787;27;20443;-77
2021/06/20 03:31:21;;;;;;;13.60;12.60;;;;;;;;;;5113998;28;20773;-77
2021/06/20 03:33:47;;;;;;;12.53;11.60;;;;;;;;;;5113707;28;20491;-78
2021/06/20 03:36:14;;;;;;;14.70;13.50;;;;;;;;;;5114061;28;20443;-79
2021/06/20 03:38:40;;;;;;;14.53;13.33;;;;;;;;;;5113549;28;20409;-80
2021/06/20 03:41:07;;;;;;;14.60;13.17;;;;;;;;;;5114095;28;20762;-79
2021/06/20 03:43:33;;;;;;;14.17;12.93;;;;;;;;;;5103596;28;20445;-75
2021/06/20 03:45:59;;;;;;;14.70;13.30;;;;;;;;;;5093706;28;20405;-77
2021/06/20 03:48:25;;;;;;;14.97;13.70;;;;;;;;;;5103258;28;20465;-78
2021/06/20 03:50:51;;;;;;;13.93;12.93;;;;;;;;;;5097163;28;20959;-78
2021/06/20 03:53:17;;;;;;;15.67;14.17;;;;;;;;;;5093215;28;20465;-76
2021/06/20 03:55:43;;;;;;;13.87;12.87;;;;;;;;;;5106745;28;20455;-77
2021/06/20 03:58:09;;;;;;;14.60;13.50;;;;;;;;;;5103375;28;20800;-79
2021/06/20 04:00:36;;;;;;;14.07;12.97;;;;;;;;;;5110046;28;20484;-76
2021/06/20 04:03:03;;;;;;;15.37;14.17;;;;;;;;;;5103719;28;20424;-77
2021/06/20 04:05:29;;;;;;;15.20;13.90;;;;;;;;;;5113717;28;20778;-77
2021/06/20 04:07:55;;;;;;;15.03;13.73;;;;;;;;;;5113349;28;20432;-77
2021/06/20 04:10:21;;;;;;;14.60;13.50;;;;;;;;;;5113805;28;20416;-78
2021/06/20 04:12:47;;;;;;;14.63;13.53;;;;;;;;;;5102216;28;20453;-77
2021/06/20 04:15:13;;;;;;;16.10;14.70;;;;;;;;;;5093086;28;20767;-76
2021/06/20 04:17:40;;;;;;;16.10;14.70;;;;;;;;;;5092971;28;20418;-79
2021/06/20 04:20:11;;;;;;;16.30;15.00;;;;;;;;;;5096489;28;20466;-79
2021/06/20 04:22:38;;;;;;;16.07;14.87;;;;;;;;;;5108976;27;20891;-78
2021/06/20 04:25:05;;;;;;;17.10;15.70;;;;;;;;;;5117577;28;20408;-79
2021/06/20 04:27:31;;;;;;;17.67;16.10;;;;;;;;;;5117085;28;20408;-78
2021/06/20 04:29:57;;;;;;;19.83;18.07;;;;;;;;;;5106772;27;20417;-79
2021/06/20 04:32:23;;;;;;;21.40;19.40;;;;;;;;;;5097066;28;20460;-77
2021/06/20 04:34:49;;;;;;;22.73;20.77;;;;;;;;;;5096847;28;20530;-77
2021/06/20 04:37:15;;;;;;;22.37;20.47;;;;;;;;;;5097040;28;20409;-80
2021/06/20 04:39:41;;;;;;;23.90;21.77;;;;;;;;;;5096805;28;20492;-74
2021/06/20 04:42:10;;;;;;;22.70;20.50;;;;;;;;;;5096651;28;20429;-79
2021/06/20 04:44:43;;;;;;;20.47;18.33;;;;;;;;;;5096674;28;20432;-77
2021/06/20 04:47:10;;;;;;;18.93;17.43;;;;;;;;;;5096835;28;20470;-77
2021/06/20 04:49:36;;;;;;;20.40;18.60;;;;;;;;;;5096613;28;20500;-77
2021/06/20 04:52:04;;;;;;;20.00;18.07;;;;;;;;;;5096608;28;20459;-75
2021/06/20 04:54:30;;;;;;;20.20;18.30;;;;;;;;;;5096363;28;20803;-73
2021/06/20 04:56:57;;;;;;;19.70;17.90;;;;;;;;;;5096409;28;20416;-74
2021/06/20 04:59:23;;;;;;;18.07;15.60;;;;;;;;;;5096308;28;20409;-73
2021/06/20 05:01:49;;;;;;;18.80;16.90;;;;;;;;;;5096545;28;20433;-73
2021/06/20 05:04:15;;;;;;;17.27;15.73;;;;;;;;;;5096299;28;20413;-72
2021/06/20 05:06:41;;;;;;;15.87;14.47;;;;;;;;;;5096818;28;20521;-74
2021/06/20 05:09:07;;;;;;;15.37;13.77;;;;;;;;;;5096094;28;20470;-72
2021/06/20 05:11:33;;;;;;;14.40;13.13;;;;;;;;;;5099827;28;20437;-71
2021/06/20 05:13:59;;;;;;;15.57;13.30;;;;;;;;;;5104844;28;20464;-73
2021/06/20 05:16:25;;;;;;;13.30;12.03;;;;;;;;;;5096366;28;20405;-72
2021/06/20 05:18:51;;;;;;;12.03;10.70;;;;;;;;;;5096093;28;20464;-73
2021/06/20 05:21:17;;;;;;;14.03;10.97;;;;;;;;;;5096216;28;20409;-73
2021/06/20 05:23:43;;;;;;;12.87;11.57;;;;;;;;;;5113824;28;20419;-75
2021/06/20 05:26:09;;;;;;;13.73;12.53;;;;;;;;;;5116737;28;20420;-74
2021/06/20 05:28:35;;;;;;;11.83;10.70;;;;;;;;;;5116226;28;20899;-76
2021/06/20 05:31:01;;;;;;;13.03;10.33;;;;;;;;;;5095955;28;20414;-75
2021/06/20 05:33:27;;;;;;;13.50;10.90;;;;;;;;;;5095639;28;20457;-75
2021/06/20 05:35:53;;;;;;;11.47;9.30;;;;;;;;;;5094691;28;20483;-74
2021/06/20 05:38:19;;;;;;;7.97;7.27;;;;;;;;;;5095641;28;20417;-76
2021/06/20 05:40:45;;;;;;;13.77;7.33;;;;;;;;;;5095830;28;20415;-76
2021/06/20 05:43:11;;;;;;;8.07;7.20;;;;;;;;;;5095399;28;20433;-77
2021/06/20 05:45:37;;;;;;;10.50;6.80;;;;;;;;;;5095473;28;20405;-75
2021/06/20 05:48:03;;;;;;;9.30;8.33;;;;;;;;;;5095472;28;20418;-75
2021/06/20 05:50:29;;;;;;;7.70;6.00;;;;;;;;;;5095685;28;20414;-74
2021/06/20 05:52:57;;;;;;;7.50;6.77;;;;;;;;;;5095340;28;20806;-76
2021/06/20 05:55:23;;;;;;;6.50;5.87;;;;;;;;;;5095421;28;20414;-77
2021/06/20 05:57:49;;;;;;;5.83;5.40;;;;;;;;;;5095400;28;20442;-76
2021/06/20 06:00:16;;;;;;;6.10;5.50;;;;;;;;;;5095428;28;20423;-74
2021/06/20 06:02:42;;;;;;;6.23;5.60;;;;;;;;;;5095098;28;20792;-76
2021/06/20 06:05:09;;;;;;;6.70;5.13;;;;;;;;;;5095047;28;20413;-73
2021/06/20 06:07:35;;;;;;;5.50;4.63;;;;;;;;;;5094637;28;20461;-73
2021/06/20 06:10:01;;;;;;;7.50;4.90;;;;;;;;;;5095130;28;20750;-75
2021/06/20 06:12:27;;;;;;;6.23;5.03;;;;;;;;;;5094905;28;20464;-76
2021/06/20 06:14:55;;;;;;;8.70;4.87;;;;;;;;;;5094970;28;20879;-76
2021/06/20 06:17:21;;;;;;;5.00;4.50;;;;;;;;;;5095508;28;20466;-76
2021/06/20 06:19:48;;;;;;;5.70;3.73;;;;;;;;;;5094851;28;20405;-76
2021/06/20 06:22:15;;;;;;;10.10;4.20;;;;;;;;;;5100422;28;20523;-76
2021/06/20 06:24:42;;;;;;;7.10;3.90;;;;;;;;;;5115039;27;20893;-76
2021/06/20 06:27:08;;;;;;;5.80;4.43;;;;;;;;;;5115398;28;20408;-75
2021/06/20 06:29:34;;;;;;;5.07;4.60;;;;;;;;;;5107428;27;20955;-76
2021/06/20 06:32:00;;;;;;;5.53;4.47;;;;;;;;;;5094503;28;20453;-76
2021/06/20 06:34:26;;;;;;;4.63;4.10;;;;;;;;;;5094551;28;20934;-76
2021/06/20 06:36:52;;;;;;;6.80;5.00;;;;;;;;;;5094675;28;20414;-74
2021/06/20 06:39:19;;;;;;;6.07;5.07;;;;;;;;;;5094352;28;20410;-75
2021/06/20 06:41:45;;;;;;;7.13;5.00;;;;;;;;;;5093304;28;20454;-75
2021/06/20 06:44:11;;;;;;;5.60;4.30;;;;;;;;;;5094155;28;20489;-75
2021/06/20 06:46:37;;;;;;;6.60;5.27;;;;;;;;;;5094725;28;20441;-76
2021/06/20 06:49:03;;;;;;;7.47;4.67;;;;;;;;;;5094192;28;20829;-76
2021/06/20 06:51:29;;;;;;;6.50;5.20;;;;;;;;;;5094172;28;20462;-76
2021/06/20 06:53:55;;;;;;;6.40;5.00;;;;;;;;;;5093994;28;20465;-76
2021/06/20 06:56:21;;;;;;;7.77;5.47;;;;;;;;;;5094427;28;20474;-76
2021/06/20 06:58:47;;;;;;;7.50;5.40;;;;;;;;;;5094280;28;20405;-75
2021/06/20 07:01:14;;;;;;;6.60;5.73;;;;;;;;;;5094290;28;20445;-75
2021/06/20 07:03:40;;;;;;;6.10;5.53;;;;;;;;;;5094257;28;20446;-74
2021/06/20 07:06:06;;;;;;;6.43;5.73;;;;;;;;;;5093578;28;20956;-75
2021/06/20 07:08:32;;;;;;;8.53;6.00;;;;;;;;;;5094040;28;20467;-75
2021/06/20 07:10:58;;;;;;;7.83;5.33;;;;;;;;;;5094155;28;20417;-75
2021/06/20 07:13:24;;;;;;;6.33;5.70;;;;;;;;;;5093635;28;20545;-76
2021/06/20 07:15:50;;;;;;;7.13;5.80;;;;;;;;;;5093928;28;20874;-75
2021/06/20 07:18:16;;;;;;;9.13;5.60;;;;;;;;;;5093844;28;20462;-75
2021/06/20 07:20:42;;;;;;;6.90;5.60;;;;;;;;;;5093620;28;20406;-75
2021/06/20 07:23:08;;;;;;;7.03;5.90;;;;;;;;;;5104112;28;20432;-75
2021/06/20 07:25:34;;;;;;;9.83;5.10;;;;;;;;;;5114301;28;20409;-75
2021/06/20 07:28:00;;;;;;;5.90;5.13;;;;;;;;;;5114061;28;20457;-74
2021/06/20 07:30:27;;;;;;;8.57;5.83;;;;;;;;;;5099271;28;20417;-75
2021/06/20 07:32:54;;;;;;;7.90;5.40;;;;;;;;;;5093330;28;20491;-76
2021/06/20 07:35:20;;;;;;;6.90;5.83;;;;;;;;;;5092360;28;20416;-76
2021/06/20 07:37:46;;;;;;;6.60;5.90;;;;;;;;;;5093640;28;20490;-76
2021/06/20 07:40:14;;;;;;;7.37;5.90;;;;;;;;;;5093418;28;20418;-76
2021/06/20 07:42:41;;;;;;;6.13;5.53;;;;;;;;;;5093452;28;20429;-75
2021/06/20 07:45:07;;;;;;;7.10;6.00;;;;;;;;;;5092012;28;20481;-74
2021/06/20 07:47:36;;;;;;;11.30;5.90;;;;;;;;;;5093416;28;20448;-75
2021/06/20 07:50:02;;;;;;;7.57;5.20;;;;;;;;;;5093405;28;20413;-76
2021/06/20 07:52:28;;;;;;;7.53;6.50;;;;;;;;;;5093404;28;20593;-74
2021/06/20 07:54:54;;;;;;;6.83;5.10;;;;;;;;;;5093074;28;20823;-76
2021/06/20 07:57:21;;;;;;;7.70;5.87;;;;;;;;;;5093369;28;20471;-77
2021/06/20 07:59:47;;;;;;;7.80;5.30;;;;;;;;;;5093008;28;20424;-77
2021/06/20 08:02:14;;;;;;;8.30;5.07;;;;;;;;;;5093206;28;20987;-76
2021/06/20 08:04:40;;;;;;;10.37;5.20;;;;;;;;;;5092999;28;20424;-77
2021/06/20 08:07:07;;;;;;;9.27;5.60;;;;;;;;;;5093176;28;20523;-77
2021/06/20 08:09:33;;;;;;;7.10;5.63;;;;;;;;;;5093076;28;20417;-75
2021/06/20 08:11:59;;;;;;;6.70;5.50;;;;;;;;;;5101581;28;20463;-77
2021/06/20 08:14:25;;;;;;;6.53;5.60;;;;;;;;;;5097578;28;20397;-79
2021/06/20 08:16:52;;;;;;;6.47;4.80;;;;;;;;;;5092954;28;20527;-76
2021/06/20 08:19:18;;;;;;;7.17;4.80;;;;;;;;;;5104222;28;20412;-79
2021/06/20 08:21:45;;;;;;;6.67;5.00;;;;;;;;;;5095393;28;20516;-76
2021/06/20 08:24:11;;;;;;;5.80;5.27;;;;;;;;;;5108884;28;20420;-77
2021/06/20 08:26:37;;;;;;;7.40;5.60;;;;;;;;;;5095608;28;20442;-78
2021/06/20 08:29:04;;;;;;;8.37;7.10;;;;;;;;;;5105543;28;20404;-76
2021/06/20 08:31:30;;;;;;;7.70;6.67;;;;;;;;;;5113415;28;20435;-77
2021/06/20 08:33:56;;;;;;;12.53;6.47;;;;;;;;;;5113244;28;20456;-77
2021/06/20 08:36:22;;;;;;;8.30;7.27;;;;;;;;;;5113615;28;20408;-76
2021/06/20 08:38:48;;;;;;;7.47;6.80;;;;;;;;;;5102186;28;20398;-77
2021/06/20 08:41:15;;;;;;;9.40;6.07;;;;;;;;;;5110771;28;20409;-76
2021/06/20 08:43:41;;;;;;;7.00;5.70;;;;;;;;;;5102681;28;20795;-78
2021/06/20 08:46:07;;;;;;;6.37;5.77;;;;;;;;;;5093147;28;20410;-76
2021/06/20 08:48:34;;;;;;;7.87;6.63;;;;;;;;;;5092226;28;20416;-77
2021/06/20 08:51:00;;;;;;;7.53;6.90;;;;;;;;;;5093633;28;20457;-77
2021/06/20 08:53:26;;;;;;;6.10;5.50;;;;;;;;;;5089302;28;20471;-76
2021/06/20 08:55:52;;;;;;;7.27;6.30;;;;;;;;;;5094878;28;20405;-78
2021/06/20 08:58:20;;;;;;;6.97;6.27;;;;;;;;;;5089085;28;20933;-77
2021/06/20 09:00:46;;;;;;;10.27;6.07;;;;;;;;;;5094227;28;20495;-79
2021/06/20 09:03:13;;;;;;;6.70;6.20;;;;;;;;;;5097378;28;20438;-79
2021/06/20 09:05:39;;;;;;;6.97;6.23;;;;;;;;;;5092439;28;20900;-78
2021/06/20 09:08:24;;;;;;;7.43;6.80;;;;;;;;;;5113939;28;20522;-79
2021/06/20 09:10:50;;;;;;;8.20;7.27;;;;;;;;;;5103342;28;20405;-77
2021/06/20 09:13:16;;;;;;;7.60;6.90;;;;;;;;;;5095096;28;20457;-77
2021/06/20 09:15:42;;;;;;;8.40;7.33;;;;;;;;;;5093395;28;20846;-82
2021/06/20 09:18:12;;;;;;;7.33;6.47;;;;;;;;;;5093225;28;20406;-81
2021/06/20 09:20:42;;;;;;;8.10;7.30;;;;;;;;;;5101821;28;20425;-80
2021/06/20 09:23:10;;;;;;;8.13;7.20;;;;;;;;;;5107186;28;20432;-80
2021/06/20 09:25:37;;;;;;;8.67;7.10;;;;;;;;;;5097531;28;20882;-76
2021/06/20 09:28:04;;;;;;;9.57;8.57;;;;;;;;;;5092882;28;20425;-78
2021/06/20 09:30:31;;;;;;;11.13;8.57;;;;;;;;;;5102706;28;21149;-80
2021/06/20 09:33:01;;;;;;;8.90;8.20;;;;;;;;;;5112861;28;20822;-79
2021/06/20 09:35:46;;;;;;;9.20;8.40;;;;;;;;;;5104314;28;20914;-78
2021/06/20 09:38:22;;;;;;;10.00;8.30;;;;;;;;;;5092888;28;20928;-81
2021/06/20 09:40:48;;;;;;;12.97;8.93;;;;;;;;;;5092938;28;20935;-79
2021/06/20 09:43:18;;;;;;;9.17;8.37;;;;;;;;;;5095228;28;20424;-77
2021/06/20 09:45:45;;;;;;;11.67;9.13;;;;;;;;;;5127560;27;20415;-82
2021/06/20 09:48:25;;;;;;;12.00;9.30;;;;;;;;;;5114099;28;20765;-78
2021/06/20 09:50:51;;;;;;;9.83;8.93;;;;;;;;;;5113864;28;20917;-79
2021/06/20 09:53:20;;;;;;;9.90;9.00;;;;;;;;;;5113703;28;20463;-81
2021/06/20 09:55:46;;;;;;;9.10;8.20;;;;;;;;;;5094575;28;20462;-78
2021/06/20 09:58:12;;;;;;;14.80;9.60;;;;;;;;;;5092437;28;20410;-81
2021/06/20 10:00:43;;;;;;;10.70;9.43;;;;;;;;;;5106093;28;20413;-79
2021/06/20 10:03:22;;;;;;;9.93;9.10;;;;;;;;;;5091339;28;20437;-79
2021/06/20 10:05:50;;;;;;;9.20;8.30;;;;;;;;;;5091964;28;20425;-83
2021/06/20 10:08:16;;;;;;;9.53;8.53;;;;;;;;;;5104984;28;20953;-79
2021/06/20 10:10:42;;;;;;;9.47;8.60;;;;;;;;;;5093158;28;20775;-78
2021/06/20 10:13:10;;;;;;;9.33;8.53;;;;;;;;;;5102195;28;20475;-80
2021/06/20 10:15:36;;;;;;;10.90;10.00;;;;;;;;;;5092324;28;20401;-80
2021/06/20 10:18:05;;;;;;;11.77;10.77;;;;;;;;;;5091812;28;20435;-78
2021/06/20 10:20:35;;;;;;;9.33;8.43;;;;;;;;;;5110313;28;20416;-80
2021/06/20 10:23:02;;;;;;;9.50;8.60;;;;;;;;;;5113313;28;20428;-77
2021/06/20 10:25:35;;;;;;;11.40;8.60;;;;;;;;;;5115564;28;20477;-77
2021/06/20 10:28:03;;;;;;;9.30;8.40;;;;;;;;;;5113230;27;20428;-78
2021/06/20 10:30:34;;;;;;;9.37;8.47;;;;;;;;;;5112396;28;20828;-81
2021/06/20 10:33:05;;;;;;;8.97;8.27;;;;;;;;;;5111596;28;20472;-79
2021/06/20 10:35:31;;;;;;;10.10;9.30;;;;;;;;;;5111442;28;20412;-79
2021/06/20 10:37:57;;;;;;;9.20;8.30;;;;;;;;;;5111983;28;20408;-79
2021/06/20 10:40:23;;;;;;;9.37;8.30;;;;;;;;;;5111529;28;20455;-82
2021/06/20 10:42:50;;;;;;;9.43;8.70;;;;;;;;;;5111272;28;20464;-79
2021/06/20 10:45:26;;;;;;;10.53;9.03;;;;;;;;;;5110924;28;20419;-81
2021/06/20 10:47:52;;;;;;;8.50;7.80;;;;;;;;;;5091706;28;20411;-78
2021/06/20 10:50:18;;;;;;;8.37;7.40;;;;;;;;;;5091910;28;20428;-78
2021/06/20 10:52:57;;;;;;;7.53;7.03;;;;;;;;;;5091736;28;20883;-79
2021/06/20 10:55:23;;;;;;;8.60;7.80;;;;;;;;;;5099081;28;20424;-80
2021/06/20 10:57:51;;;;;;;12.43;11.43;;;;;;;;;;5091619;28;20410;-79
2021/06/20 11:00:27;;;;;;;8.60;7.90;;;;;;;;;;5091090;28;20929;-79
2021/06/20 11:02:55;;;;;;;7.97;7.10;;;;;;;;;;5091516;28;20440;-76
2021/06/20 11:05:24;;;;;;;7.83;7.33;;;;;;;;;;5092126;28;20421;-80
2021/06/20 11:07:51;;;;;;;7.70;7.20;;;;;;;;;;5090834;28;20480;-79
2021/06/20 11:10:26;;;;;;;7.60;6.90;;;;;;;;;;5090674;28;20799;-77
2021/06/20 11:12:58;;;;;;;8.67;7.90;;;;;;;;;;5090117;28;20461;-78
2021/06/20 11:15:28;;;;;;;9.13;8.23;;;;;;;;;;5091048;28;20449;-77
2021/06/20 11:18:04;;;;;;;9.13;8.43;;;;;;;;;;5089119;28;20430;-77
2021/06/20 11:20:30;;;;;;;9.07;8.37;;;;;;;;;;5101568;28;20431;-78
2021/06/20 11:22:57;;;;;;;8.50;7.90;;;;;;;;;;5110560;28;20524;-78
2021/06/20 11:25:24;;;;;;;9.10;8.00;;;;;;;;;;5111456;28;20416;-78
2021/06/20 11:27:50;;;;;;;8.23;7.50;;;;;;;;;;5110063;28;20412;-77
2021/06/20 11:30:20;;;;;;;8.87;8.10;;;;;;;;;;5099436;28;20412;-77
2021/06/20 11:32:47;;;;;;;7.97;7.30;;;;;;;;;;5103537;28;20477;-78
2021/06/20 11:35:15;;;;;;;8.27;7.50;;;;;;;;;;5090389;28;20984;-79
2021/06/20 11:37:46;;;;;;;7.60;7.00;;;;;;;;;;5090255;28;20413;-78
2021/06/20 11:40:17;;;;;;;9.87;7.60;;;;;;;;;;5089181;28;20420;-79
2021/06/20 11:42:46;;;;;;;7.03;6.53;;;;;;;;;;5090323;28;20429;-80
2021/06/20 11:45:23;;;;;;;7.90;7.20;;;;;;;;;;5109459;28;20769;-78
2021/06/20 11:47:50;;;;;;;8.73;8.13;;;;;;;;;;5110050;28;20423;-80
2021/06/20 11:50:29;;;;;;;7.57;6.90;;;;;;;;;;5110350;28;20457;-80
2021/06/20 11:53:06;;;;;;;7.90;7.30;;;;;;;;;;5110303;28;20478;-79
2021/06/20 11:55:40;;;;;;;7.73;7.10;;;;;;;;;;5110578;28;20439;-79
2021/06/20 11:58:08;;;;;;;7.53;6.67;;;;;;;;;;5110302;28;20491;-78
2021/06/20 12:00:34;;;;;;;7.73;7.03;;;;;;;;;;5111513;28;20815;-78
2021/06/20 12:03:08;;;;;;;7.50;7.00;;;;;;;;;;5110345;28;20505;-79
2021/06/20 12:05:35;;;;;;;7.23;6.63;;;;;;;;;;5112041;28;21160;-78
2021/06/20 12:08:02;;;;;;;7.90;7.17;;;;;;;;;;5111163;28;20456;-80
2021/06/20 12:10:29;;;;;;;6.90;6.30;;;;;;;;;;5111774;28;20420;-80
2021/06/20 12:13:03;;;;;;;7.00;6.30;;;;;;;;;;5095039;28;20475;-81
2021/06/20 12:15:30;;;;;;;5.93;5.53;;;;;;;;;;5090589;28;20413;-78
2021/06/20 12:17:56;;;;;;;6.30;5.80;;;;;;;;;;5090879;28;20414;-80
2021/06/20 12:20:34;;;;;;;6.60;6.00;;;;;;;;;;5095779;28;20487;-82
2021/06/20 12:23:00;;;;;;;7.37;6.67;;;;;;;;;;5110627;28;20454;-79
2021/06/20 12:25:26;;;;;;;7.10;6.40;;;;;;;;;;5111714;28;20419;-80
2021/06/20 12:27:52;;;;;;;6.90;6.20;;;;;;;;;;5110495;28;20811;-79
2021/06/20 12:30:23;;;;;;;6.17;5.70;;;;;;;;;;5103450;28;20429;-80
2021/06/20 12:32:50;;;;;;;6.87;6.17;;;;;;;;;;5101238;28;20468;-81
2021/06/20 12:35:19;;;;;;;6.00;5.50;;;;;;;;;;5109702;28;20435;-79
2021/06/20 12:37:45;;;;;;;6.17;5.67;;;;;;;;;;5110012;28;20527;-78
2021/06/20 12:40:13;;;;;;;6.63;5.57;;;;;;;;;;5112071;28;20408;-78
2021/06/20 12:42:43;;;;;;;7.60;6.00;;;;;;;;;;5113689;28;20436;-78
2021/06/20 12:45:20;;;;;;;6.57;6.07;;;;;;;;;;5108161;28;21039;-79
2021/06/20 12:47:49;;;;;;;7.33;6.70;;;;;;;;;;5107862;28;20738;-79
2021/06/20 12:50:23;;;;;;;7.23;6.73;;;;;;;;;;5113690;28;20408;-79
2021/06/20 12:52:50;;;;;;;6.57;6.07;;;;;;;;;;5113096;28;20861;-80
2021/06/20 12:55:21;;;;;;;6.20;5.80;;;;;;;;;;5113294;28;20526;-81
2021/06/20 12:57:56;;;;;;;5.70;5.20;;;;;;;;;;5104332;28;20400;-80
2021/06/20 13:00:22;;;;;;;5.97;5.47;;;;;;;;;;5113324;28;20404;-80
2021/06/20 13:02:54;;;;;;;6.07;5.57;;;;;;;;;;5113286;28;20424;-80
2021/06/20 13:05:40;;;;;;;4.80;4.40;;;;;;;;;;5113632;28;20415;-79
2021/06/20 13:08:08;;;;;;;5.27;4.87;;;;;;;;;;5112246;28;20479;-79
2021/06/20 13:10:34;;;;;;;7.73;4.57;;;;;;;;;;5113198;28;20428;-81
2021/06/20 13:13:00;;;;;;;5.47;4.97;;;;;;;;;;5103169;28;20472;-79
2021/06/20 13:15:27;;;;;;;5.53;5.07;;;;;;;;;;5113938;28;21056;-80
2021/06/20 13:17:53;;;;;;;5.47;5.07;;;;;;;;;;5113333;28;20412;-78
2021/06/20 13:20:19;;;;;;;6.00;5.60;;;;;;;;;;5113973;28;20896;-83
2021/06/20 13:22:46;;;;;;;5.47;5.07;;;;;;;;;;5113301;28;20437;-78
2021/06/20 13:25:12;;;;;;;5.50;5.10;;;;;;;;;;5113396;28;20423;-80
2021/06/20 13:27:39;;;;;;;6.50;6.00;;;;;;;;;;5113140;28;20413;-78
2021/06/20 13:30:06;;;;;;;9.00;5.33;;;;;;;;;;5106162;28;20766;-82
2021/06/20 13:32:32;;;;;;;6.20;5.80;;;;;;;;;;5113767;28;20981;-82
2021/06/20 13:34:58;;;;;;;5.73;5.23;;;;;;;;;;5112577;28;20412;-80
2021/06/20 13:37:24;;;;;;;5.90;5.50;;;;;;;;;;5112813;28;20421;-81
2021/06/20 13:39:51;;;;;;;5.53;5.00;;;;;;;;;;5112604;28;20415;-79
2021/06/20 13:42:17;;;;;;;7.30;6.80;;;;;;;;;;5112559;28;20440;-78
2021/06/20 13:44:43;;;;;;;6.07;5.57;;;;;;;;;;5107649;28;20448;-81
2021/06/20 13:47:09;;;;;;;7.60;6.33;;;;;;;;;;5112555;28;20416;-80
2021/06/20 13:49:35;;;;;;;7.50;6.90;;;;;;;;;;5112282;27;20428;-77
2021/06/20 13:52:01;;;;;;;7.40;6.70;;;;;;;;;;5111634;28;20447;-80
2021/06/20 13:54:27;;;;;;;10.23;9.33;;;;;;;;;;5104791;28;20431;-81
2021/06/20 13:56:54;;;;;;;7.77;6.93;;;;;;;;;;5112578;28;20397;-78
2021/06/20 13:59:21;;;;;;;7.23;6.50;;;;;;;;;;5111989;28;20413;-78
2021/06/20 14:01:48;;;;;;;7.23;6.63;;;;;;;;;;5112047;28;20420;-79
2021/06/20 14:04:14;;;;;;;7.53;7.00;;;;;;;;;;5112151;28;20480;-80
2021/06/20 14:06:40;;;;;;;7.10;6.60;;;;;;;;;;5112533;28;20415;-80
2021/06/20 14:09:07;;;;;;;7.53;6.93;;;;;;;;;;5112498;28;20487;-79
2021/06/20 14:11:34;;;;;;;8.07;7.47;;;;;;;;;;5112098;27;20797;-78
2021/06/20 14:14:00;;;;;;;8.90;7.97;;;;;;;;;;5109647;28;20456;-79
2021/06/20 14:16:26;;;;;;;8.90;8.30;;;;;;;;;;5112388;28;20770;-78
2021/06/20 14:18:52;;;;;;;9.00;8.30;;;;;;;;;;5108455;28;20421;-79
2021/06/20 14:21:18;;;;;;;9.20;8.40;;;;;;;;;;5110874;28;20435;-79
2021/06/20 14:23:44;;;;;;;7.40;6.80;;;;;;;;;;5112307;28;20791;-79
2021/06/20 14:26:10;;;;;;;7.30;6.70;;;;;;;;;;5112031;28;20493;-78
2021/06/20 14:28:36;;;;;;;7.80;7.20;;;;;;;;;;5111843;28;20436;-78
2021/06/20 14:31:02;;;;;;;7.20;6.70;;;;;;;;;;5111721;28;20417;-77
2021/06/20 14:33:28;;;;;;;7.43;6.93;;;;;;;;;;5111570;28;20558;-77